Terminal Aerodrome Forecast
Issued by NWS

Current Version | Previous Version | Text Only | Print | Product List | Glossary On
Versions: 1 2 3 4 5 6 7 8 9 10 11 12 13
000
FTUS46 KMTR 172300
TAFSJC
TAF
KSJC 172320Z 1800/1824 31015KT P6SM FEW015 SCT150
     FM180400 31006KT P6SM FEW015 SCT150
     FM181100 VRB03KT P6SM BKN015
     FM181800 33004KT P6SM FEW015
     FM182100 32010KT P6SM FEW015=

USA.gov is the U.S. government's official web portal to all federal, state and local government web resources and services.